createdAt,value
2019-01-24T00:02:26.063Z,92218.07
2019-01-24T00:04:53.489Z,92217.27
2019-01-24T00:07:20.962Z,92219.69
2019-01-24T00:09:48.314Z,92221.13
2019-01-24T00:12:15.802Z,92221.41
2019-01-24T00:14:43.150Z,92229.41
2019-01-24T00:17:10.550Z,92232.61
2019-01-24T00:19:37.887Z,92229.14
2019-01-24T00:22:05.255Z,92228.48
2019-01-24T00:24:32.667Z,92231.34
2019-01-24T00:27:00.038Z,92231.38
2019-01-24T00:29:27.523Z,92231.38
2019-01-24T00:31:54.913Z,92240.97
2019-01-24T00:34:23.322Z,92241.59
2019-01-24T00:36:51.050Z,92246.73
2019-01-24T00:39:18.459Z,92247.38
2019-01-24T00:41:45.811Z,92248.95
2019-01-24T00:44:13.183Z,92249.09
2019-01-24T00:46:40.570Z,92251.56
2019-01-24T00:49:07.934Z,92249.06
2019-01-24T00:51:35.349Z,92259.19
2019-01-24T00:54:02.898Z,92268.17
2019-01-24T00:56:30.288Z,92270.05
2019-01-24T00:58:57.747Z,92265.95
2019-01-24T01:01:25.213Z,92268.50
2019-01-24T01:03:52.919Z,92271.95
2019-01-24T01:06:20.257Z,92275.79
2019-01-24T01:08:47.713Z,92280.25
2019-01-24T01:11:15.197Z,92286.58
2019-01-24T01:13:42.854Z,92281.19
2019-01-24T01:16:10.273Z,92287.24
2019-01-24T01:18:37.640Z,92289.49
2019-01-24T01:21:05.023Z,92287.59
2019-01-24T01:23:32.355Z,92292.70
2019-01-24T01:26:00.034Z,92302.75
2019-01-24T01:28:27.398Z,92297.13
2019-01-24T01:30:54.739Z,92302.20
2019-01-24T01:33:22.151Z,92305.41
2019-01-24T01:35:49.542Z,92311.39
2019-01-24T01:38:17.518Z,92313.88
2019-01-24T01:40:45.071Z,92317.32
2019-01-24T01:43:12.434Z,92317.18
2019-01-24T01:45:39.767Z,92324.79
2019-01-24T01:48:07.157Z,92326.41
2019-01-24T01:50:34.508Z,92330.81
2019-01-24T01:53:01.887Z,92326.32
2019-01-24T01:55:29.260Z,92334.14
2019-01-24T01:57:56.714Z,92342.50
2019-01-24T02:00:24.239Z,92328.66
2019-01-24T02:02:51.613Z,92335.73
2019-01-24T02:05:18.974Z,92337.60
2019-01-24T02:07:47.027Z,92339.25
2019-01-24T02:10:15.690Z,92345.95
2019-01-24T02:12:43.162Z,92353.92
2019-01-24T02:15:10.826Z,92347.72
2019-01-24T02:17:38.302Z,92356.13
2019-01-24T02:20:07.104Z,92357.38
2019-01-24T02:22:34.483Z,92355.76
2019-01-24T02:25:01.864Z,92356.80
2019-01-24T02:27:29.300Z,92357.38
2019-01-24T02:29:56.671Z,92359.62
2019-01-24T02:32:24.071Z,92357.07
2019-01-24T02:34:51.467Z,92362.13
2019-01-24T02:37:18.820Z,92360.52
2019-01-24T02:39:46.175Z,92370.46
2019-01-24T02:42:13.557Z,92368.27
2019-01-24T02:44:40.907Z,92370.43
2019-01-24T02:47:08.266Z,92370.22
2019-01-24T02:49:35.696Z,92377.57
2019-01-24T02:52:03.383Z,92377.41
2019-01-24T02:54:30.754Z,92380.70
2019-01-24T02:56:58.225Z,92379.60
2019-01-24T02:59:25.838Z,92382.20
2019-01-24T03:01:53.297Z,92383.78
2019-01-24T03:04:20.676Z,92392.17
2019-01-24T03:06:48.034Z,92388.39
2019-01-24T03:09:15.388Z,92392.48
2019-01-24T03:11:42.788Z,92397.16
2019-01-24T03:14:10.168Z,92401.00
2019-01-24T03:16:37.556Z,92392.23
2019-01-24T03:19:04.926Z,92394.23
2019-01-24T03:21:32.307Z,92393.66
2019-01-24T03:23:59.702Z,92399.05
2019-01-24T03:26:27.055Z,92401.75
2019-01-24T03:28:54.423Z,92401.91
2019-01-24T03:31:21.747Z,92397.09
2019-01-24T03:33:49.122Z,92399.99
2019-01-24T03:36:16.532Z,92405.48
2019-01-24T03:38:43.917Z,92406.84
2019-01-24T03:41:11.271Z,92412.03
2019-01-24T03:43:38.659Z,92409.13
2019-01-24T03:46:05.995Z,92416.78
2019-01-24T03:48:33.398Z,92410.34
2019-01-24T03:51:00.783Z,92415.84
2019-01-24T03:53:28.139Z,92419.20
2019-01-24T03:55:55.670Z,92419.91
2019-01-24T03:58:23.045Z,92423.98
2019-01-24T04:00:50.392Z,92424.06
2019-01-24T04:03:17.768Z,92434.80
2019-01-24T04:05:45.122Z,92429.41
2019-01-24T04:08:12.499Z,92435.09
2019-01-24T04:10:39.863Z,92436.15
2019-01-24T04:13:07.246Z,92436.19
2019-01-24T04:15:34.602Z,92439.36
2019-01-24T04:18:01.941Z,92437.09
2019-01-24T04:20:29.324Z,92441.08
2019-01-24T04:22:56.739Z,92450.84
2019-01-24T04:25:24.111Z,92454.45
2019-01-24T04:27:51.553Z,92455.28
2019-01-24T04:30:19.766Z,92458.26
2019-01-24T04:32:47.150Z,92457.02
2019-01-24T04:35:19.645Z,92456.64
2019-01-24T04:37:43.791Z,92459.34
2019-01-24T04:40:12.235Z,92458.26
2019-01-24T04:42:39.692Z,92453.98
2019-01-24T04:45:07.840Z,92452.73
2019-01-24T04:47:35.191Z,92456.00
2019-01-24T04:50:02.695Z,92459.72
2019-01-24T04:52:30.079Z,92460.39
2019-01-24T04:54:57.462Z,92460.66
2019-01-24T04:57:24.857Z,92461.47
2019-01-24T04:59:52.243Z,92466.32
2019-01-24T05:02:19.815Z,92464.02
2019-01-24T05:04:47.188Z,92460.25
2019-01-24T05:07:14.526Z,92457.39
2019-01-24T05:09:41.942Z,92465.13
2019-01-24T05:12:09.396Z,92462.70
2019-01-24T05:14:36.815Z,92469.83
2019-01-24T05:17:04.299Z,92473.33
2019-01-24T05:19:31.744Z,92480.75
2019-01-24T05:21:59.100Z,92482.88
2019-01-24T05:24:26.520Z,92486.81
2019-01-24T05:26:53.867Z,92493.70
2019-01-24T05:29:21.262Z,92498.22
2019-01-24T05:31:48.628Z,92508.67
2019-01-24T05:34:15.982Z,92512.14
2019-01-24T05:36:43.388Z,92508.30
2019-01-24T05:39:10.743Z,92514.10
2019-01-24T05:41:38.110Z,92516.66
2019-01-24T05:44:05.481Z,92516.27
2019-01-24T05:46:32.831Z,92523.66
2019-01-24T05:49:00.237Z,92525.41
2019-01-24T05:51:27.684Z,92525.28
2019-01-24T05:53:55.078Z,92534.68
2019-01-24T05:56:22.470Z,92536.20
2019-01-24T05:58:49.827Z,92537.75
2019-01-24T06:01:17.498Z,92536.03
2019-01-24T06:03:44.874Z,92540.29
2019-01-24T06:06:12.223Z,92544.20
2019-01-24T06:08:39.604Z,92549.33
2019-01-24T06:11:06.996Z,92554.21
2019-01-24T06:13:34.379Z,92554.13
2019-01-24T06:16:01.762Z,92555.78
2019-01-24T06:18:29.167Z,92563.13
2019-01-24T06:20:56.520Z,92557.41
2019-01-24T06:23:23.897Z,92559.96
2019-01-24T06:25:51.343Z,92560.45
2019-01-24T06:28:18.771Z,92566.70
2019-01-24T06:30:46.135Z,92569.78
2019-01-24T06:33:13.488Z,92570.30
2019-01-24T06:35:40.888Z,92572.86
2019-01-24T06:38:08.324Z,92578.27
2019-01-24T06:40:35.733Z,92575.17
2019-01-24T06:43:03.180Z,92585.75
2019-01-24T06:45:30.560Z,92588.23
2019-01-24T06:47:58.049Z,92594.58
2019-01-24T06:50:25.410Z,92604.08
2019-01-24T06:52:52.782Z,92606.55
2019-01-24T06:55:24.546Z,92607.72
2019-01-24T06:57:51.948Z,92605.88
2019-01-24T07:00:19.396Z,92608.60
2019-01-24T07:02:46.765Z,92609.25
2019-01-24T07:05:14.653Z,92612.21
2019-01-24T07:07:42.066Z,92619.24
2019-01-24T07:10:10.921Z,92623.14
2019-01-24T07:12:38.274Z,92634.45
2019-01-24T07:15:07.080Z,92633.52
2019-01-24T07:17:34.430Z,92634.20
2019-01-24T07:20:01.843Z,92637.17
2019-01-24T07:22:29.215Z,92633.03
2019-01-24T07:24:56.598Z,92635.25
2019-01-24T07:27:23.986Z,92637.95
2019-01-24T07:29:51.417Z,92641.74
2019-01-24T07:32:18.787Z,92652.24
2019-01-24T07:34:46.172Z,92657.98
2019-01-24T07:37:13.566Z,92659.92
2019-01-24T07:39:40.936Z,92659.27
2019-01-24T07:42:08.302Z,92657.11
2019-01-24T07:44:35.747Z,92659.72
2019-01-24T07:47:03.305Z,92669.09
2019-01-24T07:49:30.677Z,92668.23
2019-01-24T07:51:58.083Z,92670.84
2019-01-24T07:54:25.447Z,92671.38
2019-01-24T07:56:52.936Z,92677.30
2019-01-24T07:59:20.471Z,92687.95
2019-01-24T08:01:47.856Z,92686.80
2019-01-24T08:04:15.228Z,92688.43
2019-01-24T08:06:42.590Z,92691.95
2019-01-24T08:09:09.978Z,92696.45
2019-01-24T08:11:37.338Z,92697.13
2019-01-24T08:14:04.670Z,92698.21
2019-01-24T08:16:32.083Z,92697.13
2019-01-24T08:18:59.506Z,92695.63
2019-01-24T08:21:26.947Z,92698.34
2019-01-24T08:23:54.326Z,92699.77
2019-01-24T08:26:21.707Z,92705.48
2019-01-24T08:28:49.100Z,92712.48
2019-01-24T08:31:16.462Z,92719.23
2019-01-24T08:33:43.802Z,92710.73
2019-01-24T08:36:15.543Z,92711.55
2019-01-24T08:38:40.483Z,92712.41
2019-01-24T08:41:07.850Z,92710.61
2019-01-24T08:43:35.239Z,92719.38
2019-01-24T08:46:02.677Z,92713.03
2019-01-24T08:48:30.099Z,92717.41
2019-01-24T08:50:57.717Z,92714.51
2019-01-24T08:53:25.169Z,92714.99
2019-01-24T08:55:52.542Z,92722.34
2019-01-24T08:58:19.942Z,92721.80
2019-01-24T09:00:47.293Z,92723.63
2019-01-24T09:03:14.952Z,92716.16
2019-01-24T09:05:42.363Z,92725.13
2019-01-24T09:08:09.711Z,92725.55
2019-01-24T09:10:37.670Z,92726.88
2019-01-24T09:13:05.618Z,92723.45
2019-01-24T09:15:33.123Z,92736.33
2019-01-24T09:18:00.477Z,92735.25
2019-01-24T09:20:27.847Z,92736.87
2019-01-24T09:22:55.687Z,92742.92
2019-01-24T09:25:23.211Z,92745.74
2019-01-24T09:27:50.625Z,92745.09
2019-01-24T09:30:19.302Z,92741.98
2019-01-24T09:32:46.695Z,92751.66
2019-01-24T09:35:14.377Z,92748.48
2019-01-24T09:37:41.786Z,92748.48
2019-01-24T09:40:09.822Z,92753.66
2019-01-24T09:42:37.370Z,92756.41
2019-01-24T09:45:06.309Z,92768.63
2019-01-24T09:47:33.775Z,92762.27
2019-01-24T09:50:01.150Z,92771.88
2019-01-24T09:52:28.558Z,92774.27
2019-01-24T09:54:55.987Z,92778.89
2019-01-24T09:57:23.445Z,92783.13
2019-01-24T09:59:50.806Z,92778.89
2019-01-24T10:02:18.202Z,92782.30
2019-01-24T10:04:45.562Z,92787.55
2019-01-24T10:07:12.959Z,92784.98
2019-01-24T10:09:40.332Z,92785.33
2019-01-24T10:12:07.776Z,92786.06
2019-01-24T10:14:35.155Z,92786.20
2019-01-24T10:17:02.703Z,92788.86
2019-01-24T10:19:30.106Z,92795.61
2019-01-24T10:21:57.462Z,92798.34
2019-01-24T10:24:24.962Z,92800.92
2019-01-24T10:26:52.330Z,92804.27
2019-01-24T10:29:19.811Z,92809.25
2019-01-24T10:31:47.169Z,92810.19
2019-01-24T10:34:14.531Z,92802.50
2019-01-24T10:36:43.145Z,92812.81
2019-01-24T10:39:10.697Z,92808.95
2019-01-24T10:41:38.106Z,92809.25
2019-01-24T10:44:05.471Z,92807.28
2019-01-24T10:46:32.844Z,92805.06
2019-01-24T10:49:00.326Z,92808.28
2019-01-24T10:51:27.728Z,92814.52
2019-01-24T10:53:55.119Z,92826.05
2019-01-24T10:56:22.521Z,92821.90
2019-01-24T10:58:49.933Z,92828.31
2019-01-24T11:01:17.474Z,92825.47
2019-01-24T11:03:44.865Z,92823.80
2019-01-24T11:06:12.282Z,92832.43
2019-01-24T11:08:39.729Z,92828.94
2019-01-24T11:11:07.115Z,92829.42
2019-01-24T11:13:34.500Z,92828.33
2019-01-24T11:16:02.081Z,92833.45
2019-01-24T11:18:29.547Z,92839.80
2019-01-24T11:20:56.918Z,92835.33
2019-01-24T11:23:24.315Z,92842.36
2019-01-24T11:25:51.669Z,92839.52
2019-01-24T11:28:19.026Z,92834.38
2019-01-24T11:30:46.424Z,92829.93
2019-01-24T11:33:13.790Z,92837.14
2019-01-24T11:35:41.253Z,92828.94
2019-01-24T11:38:08.734Z,92833.22
2019-01-24T11:40:36.093Z,92836.94
2019-01-24T11:43:03.903Z,92836.74
2019-01-24T11:45:32.586Z,92837.19
2019-01-24T11:47:59.992Z,92837.47
2019-01-24T11:50:27.443Z,92829.78
2019-01-24T11:52:54.843Z,92829.91
2019-01-24T11:55:22.312Z,92837.50
2019-01-24T11:57:49.687Z,92838.58
2019-01-24T12:00:25.594Z,92844.05
2019-01-24T12:02:53.014Z,92837.79
2019-01-24T12:05:20.354Z,92829.95
2019-01-24T12:07:47.745Z,92834.80
2019-01-24T12:10:16.038Z,92837.70
2019-01-24T12:12:43.565Z,92845.06
2019-01-24T12:15:11.868Z,92845.34
2019-01-24T12:17:39.323Z,92851.28
2019-01-24T12:20:08.924Z,92849.77
2019-01-24T12:22:36.292Z,92848.69
2019-01-24T12:25:03.833Z,92847.95
2019-01-24T12:27:31.236Z,92853.67
2019-01-24T12:29:58.587Z,92857.92
2019-01-24T12:32:26.055Z,92851.66
2019-01-24T12:34:53.478Z,92853.69
2019-01-24T12:37:20.936Z,92846.42
2019-01-24T12:39:48.338Z,92852.34
2019-01-24T12:42:15.711Z,92852.89
2019-01-24T12:44:43.121Z,92852.73
2019-01-24T12:47:10.487Z,92849.49
2019-01-24T12:49:37.851Z,92850.85
2019-01-24T12:52:05.265Z,92851.55
2019-01-24T12:54:32.638Z,92843.17
2019-01-24T12:56:59.994Z,92845.79
2019-01-24T12:59:27.390Z,92847.70
2019-01-24T13:01:54.792Z,92848.56
2019-01-24T13:04:22.281Z,92855.31
2019-01-24T13:06:49.641Z,92856.00
2019-01-24T13:09:16.999Z,92855.31
2019-01-24T13:11:44.412Z,92859.50
2019-01-24T13:14:11.812Z,92859.50
2019-01-24T13:16:39.257Z,92856.95
2019-01-24T13:19:06.683Z,92861.80
2019-01-24T13:21:34.135Z,92860.03
2019-01-24T13:24:01.578Z,92859.24
2019-01-24T13:26:29.060Z,92863.14
2019-01-24T13:28:56.455Z,92865.59
2019-01-24T13:31:23.810Z,92873.46
2019-01-24T13:33:51.206Z,92869.36
2019-01-24T13:36:18.574Z,92872.99
2019-01-24T13:38:45.971Z,92881.22
2019-01-24T13:41:13.380Z,92873.86
2019-01-24T13:43:40.860Z,92880.61
2019-01-24T13:46:08.322Z,92878.39
2019-01-24T13:48:35.725Z,92878.64
2019-01-24T13:51:03.219Z,92881.10
2019-01-24T13:53:30.713Z,92883.67
2019-01-24T13:55:58.162Z,92886.58
2019-01-24T13:58:25.672Z,92883.38
2019-01-24T14:00:53.034Z,92895.01
2019-01-24T14:03:31.391Z,92900.48
2019-01-24T14:05:58.812Z,92910.38
2019-01-24T14:08:26.280Z,92914.59
2019-01-24T14:10:53.765Z,92916.59
2019-01-24T14:13:21.164Z,92920.97
2019-01-24T14:15:48.631Z,92913.22
2019-01-24T14:18:16.111Z,92915.91
2019-01-24T14:20:43.553Z,92920.09
2019-01-24T14:23:10.952Z,92920.31
2019-01-24T14:25:38.323Z,92919.09
2019-01-24T14:28:05.808Z,92921.84
2019-01-24T14:30:33.200Z,92933.91
2019-01-24T14:33:00.540Z,92943.58
2019-01-24T14:35:28.098Z,92946.66
2019-01-24T14:37:55.471Z,92943.63
2019-01-24T14:40:22.836Z,92946.54
2019-01-24T14:42:50.307Z,92953.13
2019-01-24T14:45:18.746Z,92956.80
2019-01-24T14:47:46.172Z,92956.73
2019-01-24T14:50:15.170Z,92954.76
2019-01-24T14:52:42.551Z,92959.95
2019-01-24T14:55:10.089Z,92962.16
2019-01-24T14:57:37.633Z,92954.88
2019-01-24T15:00:07.626Z,92955.91
2019-01-24T15:02:35.032Z,92964.47
2019-01-24T15:05:02.408Z,92971.88
2019-01-24T15:07:30.012Z,92977.77
2019-01-24T15:09:57.382Z,92982.40
2019-01-24T15:12:24.760Z,92981.22
2019-01-24T15:14:52.148Z,92978.66
2019-01-24T15:17:19.558Z,92982.33
2019-01-24T15:19:49.100Z,92981.63
2019-01-24T15:22:16.307Z,92982.56
2019-01-24T15:24:43.712Z,92980.94
2019-01-24T15:27:11.131Z,92985.72
2019-01-24T15:29:38.556Z,92986.64
2019-01-24T15:32:10.656Z,92986.76
2019-01-24T15:34:38.071Z,92981.36
2019-01-24T15:37:05.536Z,92983.92
2019-01-24T15:39:32.920Z,92985.82
2019-01-24T15:42:00.316Z,92989.76
2019-01-24T15:44:27.822Z,92989.48
2019-01-24T15:46:55.236Z,92993.33
2019-01-24T15:49:22.652Z,92992.44
2019-01-24T15:51:50.173Z,92994.77
2019-01-24T15:54:17.595Z,93005.20
2019-01-24T15:56:44.986Z,93005.64
2019-01-24T15:59:12.476Z,93003.36
2019-01-24T16:01:39.858Z,93005.45
2019-01-24T16:04:07.264Z,93004.75
2019-01-24T16:06:34.850Z,93004.52
2019-01-24T16:09:04.358Z,93015.03
2019-01-24T16:11:31.815Z,93012.62
2019-01-24T16:13:59.287Z,93021.42
2019-01-24T16:16:26.658Z,93029.47
2019-01-24T16:18:54.076Z,93027.84
2019-01-24T16:21:21.470Z,93034.66
2019-01-24T16:23:48.855Z,93030.91
2019-01-24T16:26:16.377Z,93037.15
2019-01-24T16:28:43.746Z,93039.71
2019-01-24T16:31:11.150Z,93043.63
2019-01-24T16:33:39.431Z,93043.88
2019-01-24T16:36:06.887Z,93048.48
2019-01-24T16:38:34.264Z,93057.37
2019-01-24T16:41:01.725Z,93055.08
2019-01-24T16:43:29.213Z,93062.26
2019-01-24T16:45:56.683Z,93061.64
2019-01-24T16:48:24.082Z,93056.63
2019-01-24T16:50:51.520Z,93063.34
2019-01-24T16:53:19.022Z,93062.88
2019-01-24T16:55:46.386Z,93060.08
2019-01-24T16:58:13.788Z,93064.04
2019-01-24T17:00:52.743Z,93070.55
2019-01-24T17:03:20.132Z,93069.56
2019-01-24T17:05:47.649Z,93067.27
2019-01-24T17:08:16.648Z,93069.39
2019-01-24T17:10:44.393Z,93071.02
2019-01-24T17:13:11.894Z,93070.67
2019-01-24T17:15:39.318Z,93075.88
2019-01-24T17:18:06.868Z,93077.31
2019-01-24T17:20:34.378Z,93085.25
2019-01-24T17:23:01.872Z,93089.30
2019-01-24T17:25:29.462Z,93097.22
2019-01-24T17:27:56.926Z,93096.86
2019-01-24T17:30:25.166Z,93100.12
2019-01-24T17:32:52.891Z,93108.33
2019-01-24T17:35:23.593Z,93105.68
2019-01-24T17:37:51.047Z,93109.72
2019-01-24T17:40:19.630Z,93114.53
2019-01-24T17:42:47.060Z,93114.84
2019-01-24T17:45:14.656Z,93122.77
2019-01-24T17:47:42.178Z,93127.53
2019-01-24T17:50:10.153Z,93131.47
2019-01-24T17:52:37.594Z,93124.74
2019-01-24T17:55:06.779Z,93127.86
2019-01-24T17:57:34.318Z,93132.66
2019-01-24T18:00:01.963Z,93136.44
2019-01-24T18:02:29.476Z,93138.22
2019-01-24T18:04:56.985Z,93134.55
2019-01-24T18:07:24.389Z,93152.11
2019-01-24T18:09:51.878Z,93148.96
2019-01-24T18:12:19.399Z,93145.73
2019-01-24T18:14:46.831Z,93151.08
2019-01-24T18:17:14.392Z,93154.78
2019-01-24T18:19:41.845Z,93159.55
2019-01-24T18:22:09.247Z,93163.16
2019-01-24T18:24:36.645Z,93173.50
2019-01-24T18:27:04.135Z,93166.66
2019-01-24T18:29:31.662Z,93171.95
2019-01-24T18:31:59.134Z,93176.79
2019-01-24T18:34:26.552Z,93167.59
2019-01-24T18:36:54.038Z,93176.91
2019-01-24T18:39:21.437Z,93171.52
2019-01-24T18:41:48.900Z,93176.41
2019-01-24T18:44:16.401Z,93185.03
2019-01-24T18:46:43.835Z,93182.91
2019-01-24T18:49:11.303Z,93185.03
2019-01-24T18:51:39.140Z,93187.81
2019-01-24T18:54:06.525Z,93186.22
2019-01-24T18:56:34.019Z,93188.52
2019-01-24T18:59:01.510Z,93190.91
2019-01-24T19:01:28.929Z,93204.47
2019-01-24T19:03:56.328Z,93205.17
2019-01-24T19:06:23.859Z,93210.87
2019-01-24T19:08:51.389Z,93211.13
2019-01-24T19:11:18.905Z,93213.20
2019-01-24T19:13:46.475Z,93210.38
2019-01-24T19:16:16.574Z,93218.07
2019-01-24T19:18:43.988Z,93215.51
2019-01-24T19:21:11.496Z,93210.64
2019-01-24T19:23:38.941Z,93215.77
2019-01-24T19:26:06.447Z,93212.92
2019-01-24T19:28:33.848Z,93217.75
2019-01-24T19:31:01.247Z,93220.89
2019-01-24T19:33:28.636Z,93213.20
2019-01-24T19:36:00.203Z,93214.23
2019-01-24T19:38:28.468Z,93211.34
2019-01-24T19:40:55.941Z,93218.33
2019-01-24T19:43:23.343Z,93220.63
2019-01-24T19:45:50.767Z,93222.41
2019-01-24T19:48:18.227Z,93223.02
2019-01-24T19:50:45.641Z,93223.94
2019-01-24T19:53:16.098Z,93225.48
2019-01-24T19:55:43.511Z,93226.77
2019-01-24T19:58:12.255Z,93227.55
2019-01-24T20:00:39.723Z,93223.94
2019-01-24T20:03:07.205Z,93229.06
2019-01-24T20:05:34.727Z,93226.97
2019-01-24T20:08:02.205Z,93231.18
2019-01-24T20:10:29.597Z,93229.55
2019-01-24T20:12:57.025Z,93229.80
2019-01-24T20:15:25.356Z,93232.11
2019-01-24T20:17:53.167Z,93237.81
2019-01-24T20:20:20.559Z,93243.05
2019-01-24T20:22:48.768Z,93242.13
2019-01-24T20:25:17.349Z,93245.84
2019-01-24T20:27:44.915Z,93248.27
2019-01-24T20:30:16.487Z,93257.50
2019-01-24T20:32:43.957Z,93256.80
2019-01-24T20:35:13.340Z,93264.94
2019-01-24T20:37:40.722Z,93274.72
2019-01-24T20:40:08.829Z,93267.41
2019-01-24T20:42:36.285Z,93270.64
2019-01-24T20:45:04.495Z,93265.41
2019-01-24T20:47:32.000Z,93263.30
2019-01-24T20:49:59.416Z,93269.70
2019-01-24T20:52:26.902Z,93273.53
2019-01-24T20:54:54.287Z,93284.48
2019-01-24T20:57:21.655Z,93285.42
2019-01-24T20:59:49.148Z,93286.34
2019-01-24T21:02:16.638Z,93280.39
2019-01-24T21:04:44.031Z,93287.72
2019-01-24T21:07:11.433Z,93284.68
2019-01-24T21:09:38.833Z,93286.56
2019-01-24T21:12:06.320Z,93290.28
2019-01-24T21:14:33.722Z,93292.17
2019-01-24T21:17:01.133Z,93288.69
2019-01-24T21:19:28.646Z,93292.39
2019-01-24T21:21:56.127Z,93290.19
2019-01-24T21:24:23.563Z,93291.24
2019-01-24T21:26:51.126Z,93299.86
2019-01-24T21:29:18.618Z,93298.58
2019-01-24T21:31:46.075Z,93295.76
2019-01-24T21:34:13.504Z,93297.63
2019-01-24T21:36:40.890Z,93298.67
2019-01-24T21:39:08.298Z,93299.76
2019-01-24T21:41:35.690Z,93294.48
2019-01-24T21:44:03.135Z,93296.69
2019-01-24T21:46:30.563Z,93295.21
2019-01-24T21:48:57.927Z,93296.49
2019-01-24T21:51:25.302Z,93296.11
2019-01-24T21:53:52.688Z,93300.42
2019-01-24T21:56:20.084Z,93298.92
2019-01-24T21:58:47.479Z,93300.78
2019-01-24T22:01:14.935Z,93303.47
2019-01-24T22:03:42.331Z,93298.95
2019-01-24T22:06:09.715Z,93297.42
2019-01-24T22:08:37.118Z,93299.27
2019-01-24T22:11:04.534Z,93299.17
2019-01-24T22:13:31.972Z,93301.52
2019-01-24T22:15:59.440Z,93299.28
2019-01-24T22:18:26.875Z,93300.45
2019-01-24T22:20:55.746Z,93300.70
2019-01-24T22:23:23.754Z,93308.50
2019-01-24T22:25:51.207Z,93309.53
2019-01-24T22:28:18.745Z,93307.56
2019-01-24T22:30:50.678Z,93310.13
2019-01-24T22:33:18.085Z,93312.91
2019-01-24T22:35:45.556Z,93314.90
2019-01-24T22:38:13.033Z,93320.59
2019-01-24T22:40:40.423Z,93314.33
2019-01-24T22:43:07.870Z,93317.22
2019-01-24T22:45:35.305Z,93312.34
2019-01-24T22:48:03.128Z,93319.19
2019-01-24T22:50:30.532Z,93310.01
2019-01-24T22:52:57.910Z,93313.12
2019-01-24T22:55:25.307Z,93313.83
2019-01-24T22:57:52.690Z,93315.67
2019-01-24T23:00:53.033Z,93312.31
2019-01-24T23:03:22.098Z,93311.73
2019-01-24T23:05:49.486Z,93308.48
2019-01-24T23:08:16.824Z,93311.95
2019-01-24T23:10:44.287Z,93308.56
2019-01-24T23:13:11.798Z,93313.59
2019-01-24T23:15:39.166Z,93316.51
2019-01-24T23:18:06.656Z,93314.41
2019-01-24T23:20:33.993Z,93314.52
2019-01-24T23:23:01.455Z,93314.42
2019-01-24T23:25:29.007Z,93316.63
2019-01-24T23:27:56.394Z,93312.89
2019-01-24T23:30:23.755Z,93312.66
2019-01-24T23:32:51.490Z,93309.50
2019-01-24T23:35:18.875Z,93307.28
2019-01-24T23:37:52.307Z,93310.33
2019-01-24T23:40:15.751Z,93308.37
2019-01-24T23:42:43.109Z,93307.91
2019-01-24T23:45:12.795Z,93318.72
2019-01-24T23:47:40.235Z,93316.28
2019-01-24T23:50:07.722Z,93318.97
2019-01-24T23:52:35.198Z,93320.25
2019-01-24T23:55:03.306Z,93321.85
2019-01-24T23:57:30.771Z,93322.46
2019-01-24T23:59:58.150Z,93321.28
